sensor_id;sensor_type;location;lat;lon;timestamp;P1;durP1;ratioP1;P2;durP2;ratioP2
11121;SDS011;5615;49.304;10.576;2022-08-07T00:01:29;5.17;;;1.70;;
11121;SDS011;5615;49.304;10.576;2022-08-07T00:03:56;1.30;;;1.10;;
11121;SDS011;5615;49.304;10.576;2022-08-07T00:06:23;2.97;;;1.63;;
11121;SDS011;5615;49.304;10.576;2022-08-07T00:08:50;2.63;;;1.40;;
11121;SDS011;5615;49.304;10.576;2022-08-07T00:11:17;2.63;;;1.23;;
11121;SDS011;5615;49.304;10.576;2022-08-07T00:13:45;2.00;;;1.20;;
11121;SDS011;5615;49.304;10.576;2022-08-07T00:16:12;3.43;;;1.30;;
11121;SDS011;5615;49.304;10.576;2022-08-07T00:18:39;1.73;;;1.20;;
11121;SDS011;5615;49.304;10.576;2022-08-07T00:21:06;4.03;;;1.20;;
11121;SDS011;5615;49.304;10.576;2022-08-07T00:23:35;2.30;;;1.53;;
11121;SDS011;5615;49.304;10.576;2022-08-07T00:26:04;2.20;;;1.33;;
11121;SDS011;5615;49.304;10.576;2022-08-07T00:28:33;1.53;;;1.20;;
11121;SDS011;5615;49.304;10.576;2022-08-07T00:31:02;2.07;;;1.33;;
11121;SDS011;5615;49.304;10.576;2022-08-07T00:33:30;3.83;;;1.10;;
11121;SDS011;5615;49.304;10.576;2022-08-07T00:35:56;2.03;;;1.23;;
11121;SDS011;5615;49.304;10.576;2022-08-07T00:38:24;4.07;;;1.50;;
11121;SDS011;5615;49.304;10.576;2022-08-07T00:40:51;2.73;;;1.40;;
11121;SDS011;5615;49.304;10.576;2022-08-07T00:43:17;4.47;;;1.70;;
11121;SDS011;5615;49.304;10.576;2022-08-07T00:45:44;1.37;;;1.27;;
11121;SDS011;5615;49.304;10.576;2022-08-07T00:48:12;2.17;;;1.40;;
11121;SDS011;5615;49.304;10.576;2022-08-07T00:50:38;3.00;;;1.50;;
11121;SDS011;5615;49.304;10.576;2022-08-07T00:53:06;1.90;;;1.43;;
11121;SDS011;5615;49.304;10.576;2022-08-07T00:55:33;2.50;;;1.67;;
11121;SDS011;5615;49.304;10.576;2022-08-07T00:58:00;1.70;;;1.40;;
11121;SDS011;5615;49.304;10.576;2022-08-07T01:00:27;2.40;;;1.50;;
11121;SDS011;5615;49.304;10.576;2022-08-07T01:02:54;2.10;;;1.43;;
11121;SDS011;5615;49.304;10.576;2022-08-07T01:05:22;2.07;;;1.43;;
11121;SDS011;5615;49.304;10.576;2022-08-07T01:07:50;1.50;;;1.30;;
11121;SDS011;5615;49.304;10.576;2022-08-07T01:10:17;2.57;;;1.47;;
11121;SDS011;5615;49.304;10.576;2022-08-07T01:12:44;1.97;;;1.30;;
11121;SDS011;5615;49.304;10.576;2022-08-07T01:15:11;1.67;;;1.40;;
11121;SDS011;5615;49.304;10.576;2022-08-07T01:17:39;2.63;;;1.60;;
11121;SDS011;5615;49.304;10.576;2022-08-07T01:20:06;3.00;;;1.70;;
11121;SDS011;5615;49.304;10.576;2022-08-07T01:22:36;2.53;;;1.63;;
11121;SDS011;5615;49.304;10.576;2022-08-07T01:25:05;2.10;;;1.50;;
11121;SDS011;5615;49.304;10.576;2022-08-07T01:27:33;2.27;;;1.60;;
11121;SDS011;5615;49.304;10.576;2022-08-07T01:29:59;3.70;;;1.60;;
11121;SDS011;5615;49.304;10.576;2022-08-07T01:32:27;4.00;;;1.60;;
11121;SDS011;5615;49.304;10.576;2022-08-07T01:34:54;3.03;;;1.80;;
11121;SDS011;5615;49.304;10.576;2022-08-07T01:37:22;2.93;;;1.57;;
11121;SDS011;5615;49.304;10.576;2022-08-07T01:39:50;3.50;;;1.63;;
11121;SDS011;5615;49.304;10.576;2022-08-07T01:42:17;3.30;;;1.77;;
11121;SDS011;5615;49.304;10.576;2022-08-07T01:44:43;2.50;;;1.60;;
11121;SDS011;5615;49.304;10.576;2022-08-07T01:47:11;4.20;;;1.70;;
11121;SDS011;5615;49.304;10.576;2022-08-07T01:49:38;3.43;;;1.70;;
11121;SDS011;5615;49.304;10.576;2022-08-07T01:52:05;2.23;;;1.67;;
11121;SDS011;5615;49.304;10.576;2022-08-07T01:54:35;4.13;;;1.80;;
11121;SDS011;5615;49.304;10.576;2022-08-07T01:57:07;3.43;;;2.10;;
11121;SDS011;5615;49.304;10.576;2022-08-07T01:59:39;4.50;;;1.90;;
11121;SDS011;5615;49.304;10.576;2022-08-07T02:02:10;3.67;;;1.90;;
11121;SDS011;5615;49.304;10.576;2022-08-07T02:04:42;4.47;;;1.93;;
11121;SDS011;5615;49.304;10.576;2022-08-07T02:07:12;2.20;;;1.57;;
11121;SDS011;5615;49.304;10.576;2022-08-07T02:09:41;2.07;;;1.70;;
11121;SDS011;5615;49.304;10.576;2022-08-07T02:12:13;4.43;;;1.47;;
11121;SDS011;5615;49.304;10.576;2022-08-07T02:14:44;3.17;;;2.00;;
11121;SDS011;5615;49.304;10.576;2022-08-07T02:17:15;2.37;;;1.77;;
11121;SDS011;5615;49.304;10.576;2022-08-07T02:19:45;3.27;;;1.47;;
11121;SDS011;5615;49.304;10.576;2022-08-07T02:22:13;2.77;;;1.43;;
11121;SDS011;5615;49.304;10.576;2022-08-07T02:24:44;1.87;;;1.30;;
11121;SDS011;5615;49.304;10.576;2022-08-07T02:27:14;1.80;;;1.20;;
11121;SDS011;5615;49.304;10.576;2022-08-07T02:29:43;7.03;;;1.43;;
11121;SDS011;5615;49.304;10.576;2022-08-07T02:32:12;1.63;;;1.20;;
11121;SDS011;5615;49.304;10.576;2022-08-07T02:34:39;2.33;;;1.40;;
11121;SDS011;5615;49.304;10.576;2022-08-07T02:37:07;1.60;;;1.30;;
11121;SDS011;5615;49.304;10.576;2022-08-07T02:39:35;3.17;;;1.37;;
11121;SDS011;5615;49.304;10.576;2022-08-07T02:42:05;5.73;;;1.30;;
11121;SDS011;5615;49.304;10.576;2022-08-07T02:44:33;2.47;;;1.40;;
11121;SDS011;5615;49.304;10.576;2022-08-07T02:47:01;1.30;;;1.20;;
11121;SDS011;5615;49.304;10.576;2022-08-07T02:49:30;1.70;;;1.40;;
11121;SDS011;5615;49.304;10.576;2022-08-07T02:51:56;1.30;;;1.20;;
11121;SDS011;5615;49.304;10.576;2022-08-07T02:54:26;2.00;;;1.20;;
11121;SDS011;5615;49.304;10.576;2022-08-07T02:56:55;4.13;;;1.20;;
11121;SDS011;5615;49.304;10.576;2022-08-07T02:59:26;1.73;;;1.40;;
11121;SDS011;5615;49.304;10.576;2022-08-07T03:01:56;1.83;;;1.40;;
11121;SDS011;5615;49.304;10.576;2022-08-07T03:04:24;1.83;;;1.23;;
11121;SDS011;5615;49.304;10.576;2022-08-07T03:06:52;2.60;;;1.40;;
11121;SDS011;5615;49.304;10.576;2022-08-07T03:09:20;1.87;;;1.50;;
11121;SDS011;5615;49.304;10.576;2022-08-07T03:11:47;4.40;;;1.40;;
11121;SDS011;5615;49.304;10.576;2022-08-07T03:14:15;2.87;;;1.57;;
11121;SDS011;5615;49.304;10.576;2022-08-07T03:16:42;4.20;;;1.60;;
11121;SDS011;5615;49.304;10.576;2022-08-07T03:19:11;3.53;;;1.60;;
11121;SDS011;5615;49.304;10.576;2022-08-07T03:21:38;2.20;;;1.50;;
11121;SDS011;5615;49.304;10.576;2022-08-07T03:24:05;3.53;;;1.80;;
11121;SDS011;5615;49.304;10.576;2022-08-07T03:26:33;2.50;;;1.60;;
11121;SDS011;5615;49.304;10.576;2022-08-07T03:29:01;3.43;;;1.67;;
11121;SDS011;5615;49.304;10.576;2022-08-07T03:31:29;3.10;;;1.73;;
11121;SDS011;5615;49.304;10.576;2022-08-07T03:33:58;4.73;;;1.70;;
11121;SDS011;5615;49.304;10.576;2022-08-07T03:36:28;2.13;;;1.60;;
11121;SDS011;5615;49.304;10.576;2022-08-07T03:38:57;4.33;;;1.73;;
11121;SDS011;5615;49.304;10.576;2022-08-07T03:41:28;1.80;;;1.60;;
11121;SDS011;5615;49.304;10.576;2022-08-07T03:43:57;2.33;;;1.50;;
11121;SDS011;5615;49.304;10.576;2022-08-07T03:46:24;2.27;;;1.73;;
11121;SDS011;5615;49.304;10.576;2022-08-07T03:48:51;2.07;;;1.53;;
11121;SDS011;5615;49.304;10.576;2022-08-07T03:51:18;4.30;;;2.00;;
11121;SDS011;5615;49.304;10.576;2022-08-07T03:53:48;3.03;;;2.10;;
11121;SDS011;5615;49.304;10.576;2022-08-07T03:56:15;2.20;;;2.00;;
11121;SDS011;5615;49.304;10.576;2022-08-07T03:58:45;2.00;;;1.80;;
11121;SDS011;5615;49.304;10.576;2022-08-07T04:01:12;2.97;;;1.93;;
11121;SDS011;5615;49.304;10.576;2022-08-07T04:03:41;2.30;;;1.63;;
11121;SDS011;5615;49.304;10.576;2022-08-07T04:06:08;3.90;;;1.40;;
11121;SDS011;5615;49.304;10.576;2022-08-07T04:08:35;3.40;;;1.33;;
11121;SDS011;5615;49.304;10.576;2022-08-07T04:11:05;2.10;;;1.43;;
11121;SDS011;5615;49.304;10.576;2022-08-07T04:13:33;1.83;;;1.10;;
11121;SDS011;5615;49.304;10.576;2022-08-07T04:16:01;3.47;;;1.30;;
11121;SDS011;5615;49.304;10.576;2022-08-07T04:18:27;2.20;;;1.40;;
11121;SDS011;5615;49.304;10.576;2022-08-07T04:20:54;1.87;;;1.40;;
11121;SDS011;5615;49.304;10.576;2022-08-07T04:23:21;2.40;;;1.60;;
11121;SDS011;5615;49.304;10.576;2022-08-07T04:25:50;1.87;;;1.40;;
11121;SDS011;5615;49.304;10.576;2022-08-07T04:28:19;3.70;;;1.97;;
11121;SDS011;5615;49.304;10.576;2022-08-07T04:30:46;1.77;;;1.30;;
11121;SDS011;5615;49.304;10.576;2022-08-07T04:33:13;2.17;;;1.57;;
11121;SDS011;5615;49.304;10.576;2022-08-07T04:35:42;1.40;;;1.30;;
11121;SDS011;5615;49.304;10.576;2022-08-07T04:38:10;2.10;;;1.60;;
11121;SDS011;5615;49.304;10.576;2022-08-07T04:40:38;3.90;;;1.60;;
11121;SDS011;5615;49.304;10.576;2022-08-07T04:43:05;1.70;;;1.50;;
11121;SDS011;5615;49.304;10.576;2022-08-07T04:45:36;3.63;;;1.60;;
11121;SDS011;5615;49.304;10.576;2022-08-07T04:48:07;2.53;;;1.80;;
11121;SDS011;5615;49.304;10.576;2022-08-07T04:50:43;2.80;;;1.77;;
11121;SDS011;5615;49.304;10.576;2022-08-07T04:53:15;3.47;;;1.83;;
11121;SDS011;5615;49.304;10.576;2022-08-07T04:55:47;3.40;;;1.60;;
11121;SDS011;5615;49.304;10.576;2022-08-07T04:58:19;4.30;;;1.67;;
11121;SDS011;5615;49.304;10.576;2022-08-07T05:00:54;2.17;;;1.53;;
11121;SDS011;5615;49.304;10.576;2022-08-07T05:03:24;7.07;;;1.90;;
11121;SDS011;5615;49.304;10.576;2022-08-07T05:05:58;2.67;;;1.60;;
11121;SDS011;5615;49.304;10.576;2022-08-07T05:08:35;1.70;;;1.60;;
11121;SDS011;5615;49.304;10.576;2022-08-07T05:11:09;3.10;;;1.50;;
11121;SDS011;5615;49.304;10.576;2022-08-07T05:13:42;2.23;;;1.40;;
11121;SDS011;5615;49.304;10.576;2022-08-07T05:16:18;3.00;;;1.47;;
11121;SDS011;5615;49.304;10.576;2022-08-07T05:18:50;1.40;;;1.30;;
11121;SDS011;5615;49.304;10.576;2022-08-07T05:21:22;3.10;;;1.33;;
11121;SDS011;5615;49.304;10.576;2022-08-07T05:23:54;2.10;;;1.47;;
11121;SDS011;5615;49.304;10.576;2022-08-07T05:26:25;3.07;;;1.50;;
11121;SDS011;5615;49.304;10.576;2022-08-07T05:28:53;1.83;;;1.60;;
11121;SDS011;5615;49.304;10.576;2022-08-07T05:31:25;2.10;;;1.73;;
11121;SDS011;5615;49.304;10.576;2022-08-07T05:33:54;1.70;;;1.30;;
11121;SDS011;5615;49.304;10.576;2022-08-07T05:36:23;2.30;;;1.20;;
11121;SDS011;5615;49.304;10.576;2022-08-07T05:38:51;1.30;;;1.20;;
11121;SDS011;5615;49.304;10.576;2022-08-07T05:41:20;5.60;;;1.67;;
11121;SDS011;5615;49.304;10.576;2022-08-07T05:43:47;1.37;;;1.27;;
11121;SDS011;5615;49.304;10.576;2022-08-07T05:46:15;1.43;;;1.20;;
11121;SDS011;5615;49.304;10.576;2022-08-07T05:48:45;3.00;;;1.20;;
11121;SDS011;5615;49.304;10.576;2022-08-07T05:51:14;1.67;;;1.30;;
11121;SDS011;5615;49.304;10.576;2022-08-07T05:53:41;3.13;;;1.43;;
11121;SDS011;5615;49.304;10.576;2022-08-07T05:56:08;2.50;;;1.60;;
11121;SDS011;5615;49.304;10.576;2022-08-07T05:58:36;3.87;;;1.57;;
11121;SDS011;5615;49.304;10.576;2022-08-07T06:01:04;2.70;;;1.30;;
11121;SDS011;5615;49.304;10.576;2022-08-07T06:03:32;1.90;;;1.50;;
11121;SDS011;5615;49.304;10.576;2022-08-07T06:06:03;2.20;;;1.10;;
11121;SDS011;5615;49.304;10.576;2022-08-07T06:08:30;1.63;;;1.30;;
11121;SDS011;5615;49.304;10.576;2022-08-07T06:10:58;1.70;;;1.30;;
11121;SDS011;5615;49.304;10.576;2022-08-07T06:13:25;2.23;;;1.50;;
11121;SDS011;5615;49.304;10.576;2022-08-07T06:15:52;2.20;;;1.20;;
11121;SDS011;5615;49.304;10.576;2022-08-07T06:18:20;4.03;;;1.50;;
11121;SDS011;5615;49.304;10.576;2022-08-07T06:20:48;1.30;;;1.20;;
11121;SDS011;5615;49.304;10.576;2022-08-07T06:23:17;3.40;;;1.30;;
11121;SDS011;5615;49.304;10.576;2022-08-07T06:25:44;5.03;;;1.45;;
11121;SDS011;5615;49.304;10.576;2022-08-07T06:28:11;1.38;;;1.25;;
11121;SDS011;5615;49.304;10.576;2022-08-07T06:30:38;1.50;;;1.40;;
11121;SDS011;5615;49.304;10.576;2022-08-07T06:33:05;1.60;;;1.50;;
11121;SDS011;5615;49.304;10.576;2022-08-07T06:35:33;2.03;;;1.35;;
11121;SDS011;5615;49.304;10.576;2022-08-07T06:38:00;2.85;;;1.42;;
11121;SDS011;5615;49.304;10.576;2022-08-07T06:40:29;3.45;;;1.50;;
11121;SDS011;5615;49.304;10.576;2022-08-07T06:43:01;1.30;;;1.20;;
11121;SDS011;5615;49.304;10.576;2022-08-07T06:45:29;1.42;;;1.33;;
11121;SDS011;5615;49.304;10.576;2022-08-07T06:47:58;2.75;;;1.45;;
11121;SDS011;5615;49.304;10.576;2022-08-07T06:50:25;1.40;;;1.30;;
11121;SDS011;5615;49.304;10.576;2022-08-07T06:52:53;2.75;;;1.55;;
11121;SDS011;5615;49.304;10.576;2022-08-07T06:55:22;2.60;;;1.40;;
11121;SDS011;5615;49.304;10.576;2022-08-07T06:57:52;1.90;;;1.60;;
11121;SDS011;5615;49.304;10.576;2022-08-07T07:00:22;2.25;;;1.55;;
11121;SDS011;5615;49.304;10.576;2022-08-07T07:02:49;2.03;;;1.40;;
11121;SDS011;5615;49.304;10.576;2022-08-07T07:05:18;2.30;;;1.40;;
11121;SDS011;5615;49.304;10.576;2022-08-07T07:07:45;3.83;;;1.40;;
11121;SDS011;5615;49.304;10.576;2022-08-07T07:10:12;1.85;;;1.35;;
11121;SDS011;5615;49.304;10.576;2022-08-07T07:12:42;1.60;;;1.40;;
11121;SDS011;5615;49.304;10.576;2022-08-07T07:15:15;3.30;;;1.52;;
11121;SDS011;5615;49.304;10.576;2022-08-07T07:17:47;1.98;;;1.35;;
11121;SDS011;5615;49.304;10.576;2022-08-07T07:20:22;1.85;;;1.73;;
11121;SDS011;5615;49.304;10.576;2022-08-07T07:22:52;3.13;;;1.42;;
11121;SDS011;5615;49.304;10.576;2022-08-07T07:25:20;1.75;;;1.30;;
11121;SDS011;5615;49.304;10.576;2022-08-07T07:27:49;2.15;;;1.42;;
11121;SDS011;5615;49.304;10.576;2022-08-07T07:30:20;1.45;;;1.20;;
11121;SDS011;5615;49.304;10.576;2022-08-07T07:32:49;1.48;;;1.35;;
11121;SDS011;5615;49.304;10.576;2022-08-07T07:35:18;1.65;;;1.45;;
11121;SDS011;5615;49.304;10.576;2022-08-07T07:37:45;2.00;;;1.20;;
11121;SDS011;5615;49.304;10.576;2022-08-07T07:40:15;1.98;;;1.33;;
11121;SDS011;5615;49.304;10.576;2022-08-07T07:42:45;1.85;;;1.40;;
11121;SDS011;5615;49.304;10.576;2022-08-07T07:45:13;1.85;;;1.40;;
11121;SDS011;5615;49.304;10.576;2022-08-07T07:47:43;3.53;;;1.23;;
11121;SDS011;5615;49.304;10.576;2022-08-07T07:50:10;2.95;;;1.40;;
11121;SDS011;5615;49.304;10.576;2022-08-07T07:52:40;1.35;;;1.25;;
11121;SDS011;5615;49.304;10.576;2022-08-07T07:55:10;1.20;;;1.10;;
11121;SDS011;5615;49.304;10.576;2022-08-07T07:57:38;1.42;;;1.10;;
11121;SDS011;5615;49.304;10.576;2022-08-07T08:00:05;2.95;;;1.30;;
11121;SDS011;5615;49.304;10.576;2022-08-07T08:02:33;1.73;;;1.17;;
11121;SDS011;5615;49.304;10.576;2022-08-07T08:05:05;1.75;;;1.30;;
11121;SDS011;5615;49.304;10.576;2022-08-07T08:07:33;1.85;;;1.27;;
11121;SDS011;5615;49.304;10.576;2022-08-07T08:10:03;1.80;;;1.42;;
11121;SDS011;5615;49.304;10.576;2022-08-07T08:12:32;1.70;;;1.60;;
11121;SDS011;5615;49.304;10.576;2022-08-07T08:15:00;2.15;;;1.30;;
11121;SDS011;5615;49.304;10.576;2022-08-07T08:17:27;4.00;;;1.40;;
11121;SDS011;5615;49.304;10.576;2022-08-07T08:19:56;2.33;;;1.27;;
11121;SDS011;5615;49.304;10.576;2022-08-07T08:22:28;2.35;;;1.58;;
11121;SDS011;5615;49.304;10.576;2022-08-07T08:25:13;1.55;;;1.20;;
11121;SDS011;5615;49.304;10.576;2022-08-07T08:27:59;2.55;;;1.42;;
11121;SDS011;5615;49.304;10.576;2022-08-07T08:30:29;3.35;;;1.40;;
11121;SDS011;5615;49.304;10.576;2022-08-07T08:33:00;1.35;;;1.25;;
11121;SDS011;5615;49.304;10.576;2022-08-07T08:35:30;1.30;;;1.20;;
11121;SDS011;5615;49.304;10.576;2022-08-07T08:38:01;3.15;;;1.27;;
11121;SDS011;5615;49.304;10.576;2022-08-07T08:40:30;2.85;;;1.58;;
11121;SDS011;5615;49.304;10.576;2022-08-07T08:43:02;1.50;;;1.30;;
11121;SDS011;5615;49.304;10.576;2022-08-07T08:45:36;1.58;;;1.38;;
11121;SDS011;5615;49.304;10.576;2022-08-07T08:48:10;1.67;;;1.30;;
11121;SDS011;5615;49.304;10.576;2022-08-07T08:50:44;1.25;;;1.10;;
11121;SDS011;5615;49.304;10.576;2022-08-07T08:53:15;1.90;;;1.30;;
11121;SDS011;5615;49.304;10.576;2022-08-07T08:55:46;2.28;;;1.17;;
11121;SDS011;5615;49.304;10.576;2022-08-07T08:58:18;1.48;;;1.23;;
11121;SDS011;5615;49.304;10.576;2022-08-07T09:00:53;1.95;;;1.30;;
11121;SDS011;5615;49.304;10.576;2022-08-07T09:03:26;1.65;;;1.30;;
11121;SDS011;5615;49.304;10.576;2022-08-07T09:06:00;2.17;;;1.30;;
11121;SDS011;5615;49.304;10.576;2022-08-07T09:08:35;2.10;;;1.30;;
11121;SDS011;5615;49.304;10.576;2022-08-07T09:11:14;2.72;;;1.38;;
11121;SDS011;5615;49.304;10.576;2022-08-07T09:13:45;1.70;;;1.50;;
11121;SDS011;5615;49.304;10.576;2022-08-07T09:16:25;1.20;;;1.10;;
11121;SDS011;5615;49.304;10.576;2022-08-07T09:19:06;2.17;;;1.50;;
11121;SDS011;5615;49.304;10.576;2022-08-07T09:21:42;1.67;;;1.40;;
11121;SDS011;5615;49.304;10.576;2022-08-07T09:24:22;2.33;;;1.50;;
11121;SDS011;5615;49.304;10.576;2022-08-07T09:26:59;1.90;;;1.50;;
11121;SDS011;5615;49.304;10.576;2022-08-07T09:29:37;1.77;;;1.38;;
11121;SDS011;5615;49.304;10.576;2022-08-07T09:32:12;1.85;;;1.30;;
11121;SDS011;5615;49.304;10.576;2022-08-07T09:34:52;3.17;;;1.50;;
11121;SDS011;5615;49.304;10.576;2022-08-07T09:37:27;3.72;;;1.58;;
11121;SDS011;5615;49.304;10.576;2022-08-07T09:40:02;1.70;;;1.30;;
11121;SDS011;5615;49.304;10.576;2022-08-07T09:42:37;3.67;;;1.50;;
11121;SDS011;5615;49.304;10.576;2022-08-07T09:45:14;1.50;;;1.30;;
11121;SDS011;5615;49.304;10.576;2022-08-07T09:47:50;1.65;;;1.55;;
11121;SDS011;5615;49.304;10.576;2022-08-07T09:50:32;2.65;;;1.60;;
11121;SDS011;5615;49.304;10.576;2022-08-07T09:53:05;1.52;;;1.42;;
11121;SDS011;5615;49.304;10.576;2022-08-07T09:55:42;3.22;;;1.40;;
11121;SDS011;5615;49.304;10.576;2022-08-07T09:58:28;1.40;;;1.30;;
11121;SDS011;5615;49.304;10.576;2022-08-07T10:01:19;1.27;;;1.17;;
11121;SDS011;5615;49.304;10.576;2022-08-07T10:04:05;1.40;;;1.20;;
11121;SDS011;5615;49.304;10.576;2022-08-07T10:06:47;1.75;;;1.30;;
11121;SDS011;5615;49.304;10.576;2022-08-07T10:09:38;2.13;;;1.30;;
11121;SDS011;5615;49.304;10.576;2022-08-07T10:12:42;1.80;;;1.30;;
11121;SDS011;5615;49.304;10.576;2022-08-07T10:15:31;3.05;;;1.30;;
11121;SDS011;5615;49.304;10.576;2022-08-07T10:18:11;2.15;;;1.35;;
11121;SDS011;5615;49.304;10.576;2022-08-07T10:20:54;1.42;;;1.13;;
11121;SDS011;5615;49.304;10.576;2022-08-07T10:23:36;1.40;;;1.10;;
11121;SDS011;5615;49.304;10.576;2022-08-07T10:26:15;2.45;;;1.30;;
11121;SDS011;5615;49.304;10.576;2022-08-07T10:29:01;1.38;;;1.00;;
11121;SDS011;5615;49.304;10.576;2022-08-07T10:31:48;1.10;;;1.00;;
11121;SDS011;5615;49.304;10.576;2022-08-07T10:34:27;1.40;;;1.20;;
11121;SDS011;5615;49.304;10.576;2022-08-07T10:37:05;1.20;;;1.05;;
11121;SDS011;5615;49.304;10.576;2022-08-07T10:39:45;1.38;;;1.20;;
11121;SDS011;5615;49.304;10.576;2022-08-07T10:42:22;1.42;;;1.17;;
11121;SDS011;5615;49.304;10.576;2022-08-07T10:44:58;1.25;;;1.13;;
11121;SDS011;5615;49.304;10.576;2022-08-07T10:47:41;1.35;;;1.25;;
11121;SDS011;5615;49.304;10.576;2022-08-07T10:50:16;1.20;;;1.10;;
11121;SDS011;5615;49.304;10.576;2022-08-07T10:52:50;1.67;;;1.10;;
11121;SDS011;5615;49.304;10.576;2022-08-07T10:55:26;3.42;;;1.52;;
11121;SDS011;5615;49.304;10.576;2022-08-07T10:58:02;1.50;;;1.20;;
11121;SDS011;5615;49.304;10.576;2022-08-07T11:00:44;2.15;;;1.15;;
11121;SDS011;5615;49.304;10.576;2022-08-07T11:03:18;1.20;;;1.10;;
11121;SDS011;5615;49.304;10.576;2022-08-07T11:05:57;2.33;;;1.17;;
11121;SDS011;5615;49.304;10.576;2022-08-07T11:08:35;2.17;;;1.17;;
11121;SDS011;5615;49.304;10.576;2022-08-07T11:11:09;3.20;;;1.10;;
11121;SDS011;5615;49.304;10.576;2022-08-07T11:13:41;2.55;;;1.02;;
11121;SDS011;5615;49.304;10.576;2022-08-07T11:16:21;1.67;;;1.20;;
11121;SDS011;5615;49.304;10.576;2022-08-07T11:18:52;1.73;;;1.23;;
11121;SDS011;5615;49.304;10.576;2022-08-07T11:21:27;1.70;;;1.20;;
11121;SDS011;5615;49.304;10.576;2022-08-07T11:24:00;1.30;;;1.20;;
11121;SDS011;5615;49.304;10.576;2022-08-07T11:26:41;2.50;;;1.00;;
11121;SDS011;5615;49.304;10.576;2022-08-07T11:29:13;1.33;;;1.20;;
11121;SDS011;5615;49.304;10.576;2022-08-07T11:31:50;2.15;;;1.30;;
11121;SDS011;5615;49.304;10.576;2022-08-07T11:34:23;1.33;;;1.10;;
11121;SDS011;5615;49.304;10.576;2022-08-07T11:37:00;1.58;;;1.30;;
11121;SDS011;5615;49.304;10.576;2022-08-07T11:42:31;2.63;;;1.10;;
11121;SDS011;5615;49.304;10.576;2022-08-07T11:45:09;1.70;;;1.20;;
11121;SDS011;5615;49.304;10.576;2022-08-07T11:47:49;1.00;;;0.90;;
11121;SDS011;5615;49.304;10.576;2022-08-07T11:50:33;1.25;;;1.15;;
11121;SDS011;5615;49.304;10.576;2022-08-07T11:53:09;1.70;;;1.20;;
11121;SDS011;5615;49.304;10.576;2022-08-07T11:55:58;4.28;;;1.20;;
11121;SDS011;5615;49.304;10.576;2022-08-07T11:58:52;2.17;;;1.15;;
11121;SDS011;5615;49.304;10.576;2022-08-07T12:01:30;1.33;;;1.23;;
11121;SDS011;5615;49.304;10.576;2022-08-07T12:04:15;2.38;;;0.95;;
11121;SDS011;5615;49.304;10.576;2022-08-07T12:07:00;1.15;;;1.05;;
11121;SDS011;5615;49.304;10.576;2022-08-07T12:09:35;1.27;;;1.17;;
11121;SDS011;5615;49.304;10.576;2022-08-07T12:12:07;1.63;;;1.30;;
11121;SDS011;5615;49.304;10.576;2022-08-07T12:14:41;1.58;;;1.17;;
11121;SDS011;5615;49.304;10.576;2022-08-07T12:17:12;1.30;;;1.20;;
11121;SDS011;5615;49.304;10.576;2022-08-07T12:19:45;2.42;;;1.30;;
11121;SDS011;5615;49.304;10.576;2022-08-07T12:22:21;1.88;;;1.60;;
11121;SDS011;5615;49.304;10.576;2022-08-07T12:24:55;1.42;;;1.30;;
11121;SDS011;5615;49.304;10.576;2022-08-07T12:27:47;1.95;;;1.48;;
11121;SDS011;5615;49.304;10.576;2022-08-07T12:30:15;3.60;;;1.20;;
11121;SDS011;5615;49.304;10.576;2022-08-07T12:32:44;1.65;;;1.17;;
11121;SDS011;5615;49.304;10.576;2022-08-07T12:35:18;1.40;;;1.05;;
11121;SDS011;5615;49.304;10.576;2022-08-07T12:37:48;2.47;;;1.20;;
11121;SDS011;5615;49.304;10.576;2022-08-07T12:40:18;2.83;;;1.27;;
11121;SDS011;5615;49.304;10.576;2022-08-07T12:42:46;1.10;;;0.95;;
11121;SDS011;5615;49.304;10.576;2022-08-07T12:45:17;1.50;;;1.15;;
11121;SDS011;5615;49.304;10.576;2022-08-07T12:47:48;2.45;;;1.40;;
11121;SDS011;5615;49.304;10.576;2022-08-07T12:50:24;2.20;;;1.08;;
11121;SDS011;5615;49.304;10.576;2022-08-07T12:53:01;1.95;;;1.15;;
11121;SDS011;5615;49.304;10.576;2022-08-07T12:55:34;1.55;;;1.38;;
11121;SDS011;5615;49.304;10.576;2022-08-07T12:58:03;1.33;;;1.23;;
11121;SDS011;5615;49.304;10.576;2022-08-07T13:00:33;2.53;;;1.25;;
11121;SDS011;5615;49.304;10.576;2022-08-07T13:03:11;1.58;;;1.30;;
11121;SDS011;5615;49.304;10.576;2022-08-07T13:05:57;2.38;;;1.30;;
11121;SDS011;5615;49.304;10.576;2022-08-07T13:08:33;1.98;;;1.13;;
11121;SDS011;5615;49.304;10.576;2022-08-07T13:11:14;1.63;;;1.10;;
11121;SDS011;5615;49.304;10.576;2022-08-07T13:13:54;1.40;;;1.20;;
11121;SDS011;5615;49.304;10.576;2022-08-07T13:16:28;1.10;;;1.00;;
11121;SDS011;5615;49.304;10.576;2022-08-07T13:19:02;1.83;;;1.40;;
11121;SDS011;5615;49.304;10.576;2022-08-07T13:21:39;1.15;;;1.08;;
11121;SDS011;5615;49.304;10.576;2022-08-07T13:24:14;1.25;;;1.10;;
11121;SDS011;5615;49.304;10.576;2022-08-07T13:26:48;1.27;;;1.17;;
11121;SDS011;5615;49.304;10.576;2022-08-07T13:29:22;1.60;;;1.30;;
11121;SDS011;5615;49.304;10.576;2022-08-07T13:31:52;2.20;;;1.20;;
11121;SDS011;5615;49.304;10.576;2022-08-07T13:34:31;1.35;;;1.13;;
11121;SDS011;5615;49.304;10.576;2022-08-07T13:37:06;1.42;;;1.23;;
11121;SDS011;5615;49.304;10.576;2022-08-07T13:39:42;1.33;;;1.23;;
11121;SDS011;5615;49.304;10.576;2022-08-07T13:42:15;1.33;;;1.23;;
11121;SDS011;5615;49.304;10.576;2022-08-07T13:44:43;1.48;;;1.23;;
11121;SDS011;5615;49.304;10.576;2022-08-07T13:47:11;1.85;;;1.08;;
11121;SDS011;5615;49.304;10.576;2022-08-07T13:49:41;1.30;;;1.20;;
11121;SDS011;5615;49.304;10.576;2022-08-07T13:52:12;2.00;;;1.20;;
11121;SDS011;5615;49.304;10.576;2022-08-07T13:54:40;1.52;;;1.10;;
11121;SDS011;5615;49.304;10.576;2022-08-07T13:57:08;1.23;;;1.00;;
11121;SDS011;5615;49.304;10.576;2022-08-07T13:59:38;1.25;;;1.15;;
11121;SDS011;5615;49.304;10.576;2022-08-07T14:02:08;1.85;;;1.10;;
11121;SDS011;5615;49.304;10.576;2022-08-07T14:04:43;1.38;;;1.15;;
11121;SDS011;5615;49.304;10.576;2022-08-07T14:07:14;1.30;;;1.20;;
11121;SDS011;5615;49.304;10.576;2022-08-07T14:09:42;1.55;;;1.23;;
11121;SDS011;5615;49.304;10.576;2022-08-07T14:12:12;2.95;;;1.20;;
11121;SDS011;5615;49.304;10.576;2022-08-07T14:14:50;2.42;;;1.40;;
11121;SDS011;5615;49.304;10.576;2022-08-07T14:17:22;1.40;;;1.30;;
11121;SDS011;5615;49.304;10.576;2022-08-07T14:19:51;1.30;;;1.10;;
11121;SDS011;5615;49.304;10.576;2022-08-07T14:22:23;1.20;;;1.10;;
11121;SDS011;5615;49.304;10.576;2022-08-07T14:24:53;1.73;;;1.10;;
11121;SDS011;5615;49.304;10.576;2022-08-07T14:27:26;1.20;;;1.10;;
11121;SDS011;5615;49.304;10.576;2022-08-07T14:30:00;1.30;;;1.20;;
11121;SDS011;5615;49.304;10.576;2022-08-07T14:32:30;1.27;;;1.17;;
11121;SDS011;5615;49.304;10.576;2022-08-07T14:35:03;1.10;;;1.00;;
11121;SDS011;5615;49.304;10.576;2022-08-07T14:37:33;1.05;;;1.05;;
11121;SDS011;5615;49.304;10.576;2022-08-07T14:40:00;3.45;;;1.20;;
11121;SDS011;5615;49.304;10.576;2022-08-07T14:42:29;1.30;;;1.20;;
11121;SDS011;5615;49.304;10.576;2022-08-07T14:45:00;1.85;;;1.20;;
11121;SDS011;5615;49.304;10.576;2022-08-07T14:47:29;1.30;;;1.20;;
11121;SDS011;5615;49.304;10.576;2022-08-07T14:49:57;1.33;;;1.23;;
11121;SDS011;5615;49.304;10.576;2022-08-07T14:52:24;1.05;;;1.02;;
11121;SDS011;5615;49.304;10.576;2022-08-07T14:54:53;1.75;;;1.25;;
11121;SDS011;5615;49.304;10.576;2022-08-07T14:57:22;1.58;;;1.10;;
11121;SDS011;5615;49.304;10.576;2022-08-07T14:59:50;2.40;;;1.20;;
11121;SDS011;5615;49.304;10.576;2022-08-07T15:02:20;2.17;;;1.30;;
11121;SDS011;5615;49.304;10.576;2022-08-07T15:04:49;1.85;;;1.00;;
11121;SDS011;5615;49.304;10.576;2022-08-07T15:07:18;1.30;;;1.20;;
11121;SDS011;5615;49.304;10.576;2022-08-07T15:09:48;2.17;;;1.30;;
11121;SDS011;5615;49.304;10.576;2022-08-07T15:12:18;1.75;;;1.23;;
11121;SDS011;5615;49.304;10.576;2022-08-07T15:14:49;1.30;;;1.20;;
11121;SDS011;5615;49.304;10.576;2022-08-07T15:17:29;1.60;;;1.50;;